createdAt,value
2018-04-08T00:01:57.284Z,65.40
2018-04-08T00:04:23.434Z,65.30
2018-04-08T00:06:51.364Z,65.20
2018-04-08T00:09:17.625Z,65.60
2018-04-08T00:11:43.734Z,66.50
2018-04-08T00:14:09.841Z,66.60
2018-04-08T00:16:35.955Z,66.40
2018-04-08T00:19:02.072Z,65.90
2018-04-08T00:21:28.174Z,66.10
2018-04-08T00:23:54.309Z,66.20
2018-04-08T00:26:20.467Z,66.10
2018-04-08T00:28:46.616Z,66.50
2018-04-08T00:31:12.751Z,66.50
2018-04-08T00:33:38.834Z,66.30
2018-04-08T00:36:05.745Z,66.40
2018-04-08T00:38:31.867Z,66.40
2018-04-08T00:40:58.024Z,66.60
2018-04-08T00:43:24.138Z,66.00
2018-04-08T00:45:50.266Z,65.40
2018-04-08T00:48:16.565Z,64.70
2018-04-08T00:50:42.720Z,65.10
2018-04-08T00:53:08.859Z,65.40
2018-04-08T00:55:34.970Z,65.70
2018-04-08T00:58:01.231Z,65.40
2018-04-08T01:00:27.367Z,65.70
2018-04-08T01:02:53.486Z,66.40
2018-04-08T01:05:19.630Z,65.20
2018-04-08T01:07:45.934Z,64.90
2018-04-08T01:10:12.054Z,65.30
2018-04-08T01:12:38.919Z,65.70
2018-04-08T01:15:05.387Z,65.60
2018-04-08T01:17:31.552Z,66.10
2018-04-08T01:19:57.666Z,66.50
2018-04-08T01:22:24.007Z,66.30
2018-04-08T01:24:50.130Z,65.90
2018-04-08T01:27:17.051Z,66.40
2018-04-08T01:29:43.258Z,66.40
2018-04-08T01:32:09.407Z,66.90
2018-04-08T01:34:35.515Z,66.70
2018-04-08T01:37:02.121Z,66.60
2018-04-08T01:39:28.290Z,67.00
2018-04-08T01:41:55.127Z,66.90
2018-04-08T01:44:22.026Z,67.40
2018-04-08T01:46:48.165Z,67.40
2018-04-08T01:49:14.289Z,67.90
2018-04-08T01:51:40.358Z,67.50
2018-04-08T01:54:06.455Z,68.00
2018-04-08T01:56:32.761Z,67.50
2018-04-08T01:58:58.850Z,67.90
2018-04-08T02:01:24.994Z,67.50
2018-04-08T02:03:51.123Z,67.70
2018-04-08T02:06:17.226Z,67.50
2018-04-08T02:08:43.328Z,68.60
2018-04-08T02:11:09.416Z,68.90
2018-04-08T02:13:36.246Z,69.70
2018-04-08T02:16:02.405Z,69.70
2018-04-08T02:18:29.234Z,69.20
2018-04-08T02:20:55.379Z,69.10
2018-04-08T02:23:21.490Z,69.50
2018-04-08T02:25:47.682Z,69.50
2018-04-08T02:28:14.513Z,69.40
2018-04-08T02:30:40.652Z,69.40
2018-04-08T02:33:06.744Z,69.60
2018-04-08T02:35:32.850Z,70.00
2018-04-08T02:37:58.957Z,69.80
2018-04-08T02:40:25.060Z,69.80
2018-04-08T02:42:51.163Z,69.70
2018-04-08T02:45:18.030Z,69.10
2018-04-08T02:47:44.167Z,69.10
2018-04-08T02:50:11.062Z,68.90
2018-04-08T02:52:37.174Z,68.90
2018-04-08T02:55:03.316Z,68.60
2018-04-08T02:57:29.464Z,68.20
2018-04-08T02:59:55.598Z,68.20
2018-04-08T03:02:21.694Z,67.80
2018-04-08T03:04:47.783Z,67.70
2018-04-08T03:07:13.908Z,67.50
2018-04-08T03:09:39.995Z,67.40
2018-04-08T03:12:06.086Z,67.10
2018-04-08T03:14:32.195Z,66.70
2018-04-08T03:16:58.295Z,66.50
2018-04-08T03:19:24.411Z,66.90
2018-04-08T03:21:50.507Z,67.00
2018-04-08T03:24:16.591Z,67.20
2018-04-08T03:26:42.881Z,66.60
2018-04-08T03:29:08.988Z,67.00
2018-04-08T03:31:35.117Z,67.30
2018-04-08T03:34:01.210Z,67.50
2018-04-08T03:36:28.062Z,68.20
2018-04-08T03:38:54.199Z,68.20
2018-04-08T03:41:20.296Z,68.70
2018-04-08T03:43:47.142Z,68.60
2018-04-08T03:46:13.228Z,68.60
2018-04-08T03:48:39.322Z,68.80
2018-04-08T03:51:05.437Z,68.90
2018-04-08T03:53:31.560Z,69.00
2018-04-08T03:55:58.403Z,69.60
2018-04-08T03:58:24.494Z,69.70
2018-04-08T04:00:50.610Z,70.10
2018-04-08T04:03:16.719Z,70.40
2018-04-08T04:05:43.585Z,71.00
2018-04-08T04:08:10.422Z,71.90
2018-04-08T04:10:36.543Z,71.90
2018-04-08T04:13:02.646Z,71.90
2018-04-08T04:15:28.754Z,72.00
2018-04-08T04:17:56.730Z,73.00
2018-04-08T04:20:35.325Z,73.00
2018-04-08T04:23:13.707Z,73.40
2018-04-08T04:25:52.062Z,73.20
2018-04-08T04:28:18.176Z,73.60
2018-04-08T04:30:44.267Z,73.70
2018-04-08T04:33:10.398Z,74.20
2018-04-08T04:35:36.522Z,73.90
2018-04-08T04:38:02.610Z,74.10
2018-04-08T04:40:29.446Z,74.20
2018-04-08T04:42:55.547Z,74.10
2018-04-08T04:45:21.651Z,74.10
2018-04-08T04:47:47.774Z,74.40
2018-04-08T04:50:14.615Z,74.30
2018-04-08T04:52:40.683Z,74.20
2018-04-08T04:55:06.783Z,74.70
2018-04-08T04:57:32.886Z,74.80
2018-04-08T04:59:59.019Z,74.80
2018-04-08T05:02:25.138Z,74.90
2018-04-08T05:04:51.243Z,74.80
2018-04-08T05:07:17.342Z,74.20
2018-04-08T05:09:44.175Z,74.40
2018-04-08T05:12:10.296Z,74.40
2018-04-08T05:14:37.122Z,74.20
2018-04-08T05:17:03.246Z,74.10
2018-04-08T05:19:29.408Z,73.90
2018-04-08T05:21:55.535Z,73.90
2018-04-08T05:24:21.636Z,74.10
2018-04-08T05:26:47.707Z,74.20
2018-04-08T05:29:13.866Z,74.10
2018-04-08T05:31:39.958Z,74.00
2018-04-08T05:34:06.048Z,73.30
2018-04-08T05:36:32.159Z,72.20
2018-04-08T05:38:58.310Z,72.80
2018-04-08T05:41:24.393Z,72.90
2018-04-08T05:43:50.464Z,73.30
2018-04-08T05:46:16.565Z,73.00
2018-04-08T05:48:42.620Z,72.80
2018-04-08T05:51:08.721Z,72.20
2018-04-08T05:53:35.555Z,71.90
2018-04-08T05:56:01.665Z,71.90
2018-04-08T05:58:27.770Z,70.50
2018-04-08T06:00:53.868Z,69.60
2018-04-08T06:03:19.966Z,69.40
2018-04-08T06:05:46.079Z,68.40
2018-04-08T06:08:12.898Z,67.20
2018-04-08T06:10:39.020Z,67.20
2018-04-08T06:13:05.123Z,68.40
2018-04-08T06:15:31.254Z,68.40
2018-04-08T06:17:57.364Z,68.40
2018-04-08T06:20:23.511Z,65.60
2018-04-08T06:22:50.389Z,64.20
2018-04-08T06:25:16.535Z,64.10
2018-04-08T06:27:42.730Z,63.10
2018-04-08T06:30:08.832Z,62.30
2018-04-08T06:32:34.975Z,61.10
2018-04-08T06:35:01.133Z,60.00
2018-04-08T06:37:27.258Z,59.50
2018-04-08T06:39:53.366Z,59.40
2018-04-08T06:42:19.493Z,58.50
2018-04-08T06:44:46.436Z,57.70
2018-04-08T06:47:13.287Z,57.90
2018-04-08T06:49:39.392Z,57.80
2018-04-08T06:52:05.510Z,57.80
2018-04-08T06:54:31.598Z,56.40
2018-04-08T06:56:57.728Z,55.30
2018-04-08T06:59:23.876Z,54.90
2018-04-08T07:01:49.990Z,54.40
2018-04-08T07:04:16.106Z,53.00
2018-04-08T07:06:42.178Z,52.30
2018-04-08T07:09:08.758Z,51.70
2018-04-08T07:11:34.853Z,51.30
2018-04-08T07:14:00.974Z,49.80
2018-04-08T07:16:27.054Z,47.90
2018-04-08T07:18:53.143Z,46.80
2018-04-08T07:21:19.259Z,46.40
2018-04-08T07:23:45.378Z,45.80
2018-04-08T07:26:12.363Z,44.00
2018-04-08T07:28:38.451Z,43.90
2018-04-08T07:31:04.587Z,44.30
2018-04-08T07:33:30.659Z,43.60
2018-04-08T07:35:56.760Z,43.50
2018-04-08T07:38:22.851Z,42.10
2018-04-08T07:40:49.209Z,41.70
2018-04-08T07:43:15.335Z,41.90
2018-04-08T07:45:41.431Z,40.70
2018-04-08T07:48:07.554Z,41.60
2018-04-08T07:50:33.638Z,41.60
2018-04-08T07:52:59.751Z,41.30
2018-04-08T07:55:25.842Z,40.80
2018-04-08T07:57:51.962Z,40.20
2018-04-08T08:00:18.058Z,40.20
2018-04-08T08:02:44.183Z,39.70
2018-04-08T08:05:13.251Z,39.60
2018-04-08T08:07:39.543Z,39.80
2018-04-08T08:10:06.065Z,40.40
2018-04-08T08:12:32.498Z,40.30
2018-04-08T08:14:59.417Z,39.40
2018-04-08T08:17:25.511Z,39.40
2018-04-08T08:19:51.606Z,39.40
2018-04-08T08:22:17.826Z,39.50
2018-04-08T08:24:43.915Z,39.90
2018-04-08T08:27:09.995Z,39.60
2018-04-08T08:29:36.127Z,40.40
2018-04-08T08:32:02.222Z,39.90
2018-04-08T08:34:29.047Z,39.50
2018-04-08T08:36:55.870Z,39.50
2018-04-08T08:39:22.004Z,39.50
2018-04-08T08:41:48.195Z,39.10
2018-04-08T08:44:14.311Z,39.10
2018-04-08T08:46:41.276Z,38.80
2018-04-08T08:49:08.312Z,39.00
2018-04-08T08:51:34.762Z,39.00
2018-04-08T08:54:01.219Z,38.80
2018-04-08T08:56:27.337Z,39.50
2018-04-08T08:58:53.756Z,38.80
2018-04-08T09:01:19.854Z,38.60
2018-04-08T09:03:46.801Z,38.40
2018-04-08T09:06:12.919Z,38.40
2018-04-08T09:08:39.076Z,38.10
2018-04-08T09:11:05.975Z,38.60
2018-04-08T09:13:32.101Z,39.00
2018-04-08T09:15:58.282Z,39.10
2018-04-08T09:18:24.472Z,39.10
2018-04-08T09:20:56.866Z,39.00
2018-04-08T09:23:31.288Z,39.30
2018-04-08T09:25:59.801Z,39.80
2018-04-08T09:28:25.910Z,39.90
2018-04-08T09:30:52.791Z,39.10
2018-04-08T09:33:18.930Z,39.00
2018-04-08T09:35:45.022Z,38.70
2018-04-08T09:38:11.116Z,39.00
2018-04-08T09:40:37.229Z,39.20
2018-04-08T09:43:03.338Z,39.20
2018-04-08T09:45:29.410Z,39.10
2018-04-08T09:47:56.407Z,38.80
2018-04-08T09:50:22.587Z,38.80
2018-04-08T09:52:48.990Z,38.10
2018-04-08T09:55:15.150Z,38.30
2018-04-08T10:01:06.745Z,38.20
2018-04-08T10:03:43.640Z,38.10
2018-04-08T10:06:10.506Z,38.10
2018-04-08T10:08:36.674Z,38.10
2018-04-08T10:11:03.025Z,37.40
2018-04-08T10:13:29.486Z,37.40
2018-04-08T10:15:55.690Z,37.10
2018-04-08T10:18:21.793Z,36.70
2018-04-08T10:20:48.149Z,37.00
2018-04-08T10:23:15.225Z,36.80
2018-04-08T10:25:41.432Z,36.90
2018-04-08T10:28:08.495Z,36.00
2018-04-08T10:30:35.417Z,35.70
2018-04-08T10:33:01.570Z,35.70
2018-04-08T10:35:27.731Z,35.40
2018-04-08T10:37:53.888Z,35.30
2018-04-08T10:40:20.791Z,34.40
2018-04-08T10:42:46.966Z,34.40
2018-04-08T10:45:13.088Z,34.40
2018-04-08T10:47:39.362Z,33.70
2018-04-08T10:50:06.334Z,34.20
2018-04-08T10:52:32.504Z,34.20
2018-04-08T10:54:58.610Z,35.10
2018-04-08T10:57:25.482Z,34.60
2018-04-08T10:59:51.656Z,35.10
2018-04-08T11:02:18.056Z,34.60
2018-04-08T11:04:44.227Z,34.30
2018-04-08T11:07:10.417Z,33.50
2018-04-08T11:09:36.532Z,34.00
2018-04-08T11:12:03.132Z,33.50
2018-04-08T11:14:29.704Z,33.10
2018-04-08T11:16:56.048Z,33.20
2018-04-08T11:19:22.239Z,33.70
2018-04-08T11:21:49.159Z,32.20
2018-04-08T11:24:15.254Z,32.10
2018-04-08T11:26:41.374Z,32.20
2018-04-08T11:29:08.306Z,32.50
2018-04-08T11:31:34.519Z,32.10
2018-04-08T11:34:00.637Z,33.00
2018-04-08T11:36:26.868Z,33.30
2018-04-08T11:38:53.019Z,32.80
2018-04-08T11:41:19.155Z,32.10
2018-04-08T11:43:45.282Z,31.90
2018-04-08T11:46:11.422Z,32.50
2018-04-08T11:48:37.575Z,32.30
2018-04-08T11:51:03.728Z,32.10
2018-04-08T11:53:30.676Z,31.30
2018-04-08T11:55:57.680Z,31.60
2018-04-08T11:58:24.023Z,31.10
2018-04-08T12:00:50.896Z,32.30
2018-04-08T12:03:17.883Z,31.30
2018-04-08T12:05:44.272Z,31.30
2018-04-08T12:08:10.523Z,30.80
2018-04-08T12:10:36.690Z,30.60
2018-04-08T12:13:03.957Z,29.40
2018-04-08T12:15:30.858Z,29.50
2018-04-08T12:17:56.996Z,29.50
2018-04-08T12:20:23.113Z,30.40
2018-04-08T12:22:49.340Z,30.10
2018-04-08T12:25:15.548Z,30.60
2018-04-08T12:27:41.695Z,30.80
2018-04-08T12:30:07.826Z,30.30
2018-04-08T12:32:34.471Z,29.50
2018-04-08T12:35:01.701Z,29.20
2018-04-08T12:37:27.936Z,29.00
2018-04-08T12:39:54.802Z,28.20
2018-04-08T12:42:20.914Z,28.20
2018-04-08T12:44:47.032Z,28.50
2018-04-08T12:47:14.066Z,28.70
2018-04-08T12:49:40.178Z,28.70
2018-04-08T12:52:06.312Z,28.60
2018-04-08T12:54:32.454Z,29.00
2018-04-08T12:56:58.555Z,28.90
2018-04-08T12:59:25.424Z,30.10
2018-04-08T13:01:51.535Z,30.10
2018-04-08T13:04:17.648Z,30.20
2018-04-08T13:06:43.806Z,30.20
2018-04-08T13:09:10.159Z,30.60
2018-04-08T13:11:37.394Z,30.70
2018-04-08T13:14:03.827Z,30.00
2018-04-08T13:16:30.192Z,28.90
2018-04-08T13:18:56.594Z,29.10
2018-04-08T13:21:22.738Z,28.90
2018-04-08T13:23:49.757Z,28.90
2018-04-08T13:26:16.170Z,29.40
2018-04-08T13:28:42.335Z,28.90
2018-04-08T13:31:08.514Z,28.60
2018-04-08T13:33:34.658Z,28.50
2018-04-08T13:36:00.759Z,28.30
2018-04-08T13:38:26.883Z,27.90
2018-04-08T13:40:53.078Z,28.10
2018-04-08T13:43:19.206Z,28.80
2018-04-08T13:45:45.364Z,28.50
2018-04-08T13:48:11.527Z,28.10
2018-04-08T13:50:37.695Z,28.10
2018-04-08T13:53:05.051Z,27.50
2018-04-08T13:55:31.164Z,27.50
2018-04-08T13:57:57.336Z,28.00
2018-04-08T14:00:23.562Z,27.30
2018-04-08T14:02:49.732Z,27.10
2018-04-08T14:05:16.641Z,27.90
2018-04-08T14:07:42.778Z,27.90
2018-04-08T14:10:08.906Z,27.30
2018-04-08T14:12:35.051Z,27.50
2018-04-08T14:15:01.936Z,27.20
2018-04-08T14:17:28.066Z,27.10
2018-04-08T14:19:54.231Z,27.20
2018-04-08T14:22:20.330Z,27.10
2018-04-08T14:24:46.451Z,26.70
2018-04-08T14:27:12.626Z,26.60
2018-04-08T14:29:38.762Z,27.10
2018-04-08T14:32:04.860Z,26.60
2018-04-08T14:34:30.995Z,26.60
2018-04-08T14:36:57.210Z,26.10
2018-04-08T14:39:24.062Z,26.60
2018-04-08T14:41:50.922Z,25.70
2018-04-08T14:44:17.783Z,26.00
2018-04-08T14:46:44.715Z,25.40
2018-04-08T14:49:10.817Z,25.30
2018-04-08T14:51:37.746Z,24.50
2018-04-08T14:54:03.847Z,24.40
2018-04-08T14:56:29.966Z,23.30
2018-04-08T14:58:56.094Z,22.90
2018-04-08T15:01:22.284Z,22.90
2018-04-08T15:03:49.235Z,22.40
2018-04-08T15:06:16.184Z,21.90
2018-04-08T15:08:42.309Z,21.90
2018-04-08T15:11:08.441Z,21.70
2018-04-08T15:13:34.584Z,21.10
2018-04-08T15:16:01.231Z,20.30
2018-04-08T15:18:27.477Z,20.40
2018-04-08T15:20:53.581Z,21.30
2018-04-08T15:23:19.806Z,21.00
2018-04-08T15:25:46.020Z,20.70
2018-04-08T15:28:14.608Z,21.90
2018-04-08T15:30:40.858Z,22.80
2018-04-08T15:33:07.066Z,23.20
2018-04-08T15:35:33.482Z,23.80
2018-04-08T15:37:59.713Z,23.20
2018-04-08T15:40:25.865Z,23.30
2018-04-08T15:42:52.015Z,23.50
2018-04-08T15:45:18.167Z,23.40
2018-04-08T15:47:44.354Z,23.30
2018-04-08T15:50:10.500Z,23.20
2018-04-08T15:52:36.648Z,22.70
2018-04-08T15:55:02.832Z,23.10
2018-04-08T15:57:28.984Z,22.80
2018-04-08T15:59:55.114Z,22.80
2018-04-08T16:02:21.207Z,22.50
2018-04-08T16:04:47.337Z,23.10
2018-04-08T16:07:13.479Z,22.70
2018-04-08T16:09:39.609Z,22.60
2018-04-08T16:12:05.957Z,23.30
2018-04-08T16:14:32.185Z,23.40
2018-04-08T16:16:58.576Z,23.90
2018-04-08T16:19:24.787Z,23.60
2018-04-08T16:21:50.964Z,23.80
2018-04-08T16:24:17.203Z,23.80
2018-04-08T16:26:43.499Z,23.70
2018-04-08T16:29:09.740Z,23.70
2018-04-08T16:31:35.932Z,24.40
2018-04-08T16:34:02.144Z,23.50
2018-04-08T16:36:28.459Z,23.20
2018-04-08T16:38:54.814Z,22.10
2018-04-08T16:41:21.362Z,22.80
2018-04-08T16:43:47.677Z,22.30
2018-04-08T16:46:13.887Z,23.10
2018-04-08T16:48:40.264Z,23.80
2018-04-08T16:51:07.182Z,25.00
2018-04-08T16:53:33.315Z,25.00
2018-04-08T16:55:59.504Z,25.70
2018-04-08T16:58:25.665Z,25.70
2018-04-08T17:00:51.903Z,26.20
2018-04-08T17:03:18.058Z,26.80
2018-04-08T17:05:44.180Z,26.70
2018-04-08T17:08:10.452Z,26.70
2018-04-08T17:10:36.612Z,26.60
2018-04-08T17:13:02.990Z,26.60
2018-04-08T17:15:29.897Z,27.00
2018-04-08T17:17:56.229Z,26.90
2018-04-08T17:20:22.427Z,27.40
2018-04-08T17:22:49.335Z,28.60
2018-04-08T17:25:15.584Z,28.10
2018-04-08T17:27:42.723Z,28.00
2018-04-08T17:30:09.683Z,28.40
2018-04-08T17:32:35.964Z,28.10
2018-04-08T17:35:02.082Z,28.30
2018-04-08T17:37:28.246Z,28.30
2018-04-08T17:39:54.565Z,28.00
2018-04-08T17:42:20.714Z,28.50
2018-04-08T17:44:46.926Z,29.50
2018-04-08T17:47:13.133Z,30.10
2018-04-08T17:49:40.070Z,31.60
2018-04-08T17:52:06.273Z,31.60
2018-04-08T17:54:32.530Z,32.00
2018-04-08T17:57:00.922Z,33.10
2018-04-08T17:59:27.222Z,34.20
2018-04-08T18:01:56.119Z,34.10
2018-04-08T18:04:23.382Z,35.20
2018-04-08T18:06:49.775Z,35.50
2018-04-08T18:09:15.931Z,36.40
2018-04-08T18:11:42.103Z,37.30
2018-04-08T18:14:08.264Z,38.00
2018-04-08T18:16:34.466Z,38.80
2018-04-08T18:19:02.267Z,40.70
2018-04-08T18:21:28.412Z,41.30
2018-04-08T18:23:55.477Z,40.80
2018-04-08T18:26:21.770Z,40.80
2018-04-08T18:28:50.474Z,41.90
2018-04-08T18:31:16.703Z,41.60
2018-04-08T18:33:42.895Z,41.90
2018-04-08T18:36:09.867Z,42.80
2018-04-08T18:38:36.070Z,42.80
2018-04-08T18:41:02.992Z,44.50
2018-04-08T18:43:29.178Z,44.50
2018-04-08T18:45:55.751Z,45.00
2018-04-08T18:48:22.042Z,45.40
2018-04-08T18:50:50.265Z,45.80
2018-04-08T18:53:16.879Z,46.50
2018-04-08T18:55:44.017Z,46.70
2018-04-08T18:58:16.593Z,47.40
2018-04-08T19:00:43.004Z,47.10
2018-04-08T19:03:09.223Z,46.90
2018-04-08T19:05:35.507Z,47.30
2018-04-08T19:08:01.698Z,48.10
2018-04-08T19:10:29.295Z,48.00
2018-04-08T19:12:55.477Z,47.40
2018-04-08T19:15:21.707Z,47.60
2018-04-08T19:17:54.798Z,49.10
2018-04-08T19:20:21.730Z,50.90
2018-04-08T19:22:47.846Z,50.20
2018-04-08T19:25:14.318Z,50.90
2018-04-08T19:27:40.578Z,50.40
2018-04-08T19:30:16.651Z,50.90
2018-04-08T19:32:42.817Z,50.80
2018-04-08T19:35:08.967Z,50.80
2018-04-08T19:37:35.095Z,50.20
2018-04-08T19:40:01.268Z,50.90
2018-04-08T19:42:31.006Z,51.20
2018-04-08T19:44:57.250Z,51.30
2018-04-08T19:47:23.428Z,51.80
2018-04-08T19:49:49.518Z,53.40
2018-04-08T19:52:15.664Z,53.60
2018-04-08T19:54:41.887Z,53.90
2018-04-08T19:57:08.539Z,54.30
2018-04-08T19:59:34.666Z,53.60
2018-04-08T20:02:00.757Z,54.10
2018-04-08T20:04:27.678Z,54.80
2018-04-08T20:06:53.773Z,54.70
2018-04-08T20:09:19.999Z,53.80
2018-04-08T20:11:46.928Z,54.60
2018-04-08T20:14:13.243Z,54.50
2018-04-08T20:16:39.420Z,54.50
2018-04-08T20:19:05.565Z,55.00
2018-04-08T20:21:32.476Z,54.70
2018-04-08T20:23:58.670Z,54.70
2018-04-08T20:26:25.200Z,55.20
2018-04-08T20:28:51.362Z,55.60
2018-04-08T20:31:17.705Z,55.90
2018-04-08T20:33:43.883Z,56.80
2018-04-08T20:36:10.195Z,56.80
2018-04-08T20:38:36.667Z,57.30
2018-04-08T20:41:02.801Z,57.70
2018-04-08T20:43:28.922Z,58.10
2018-04-08T20:45:55.068Z,58.40
2018-04-08T20:48:21.227Z,57.60
2018-04-08T20:50:47.361Z,57.50
2018-04-08T20:53:14.160Z,57.60
2018-04-08T20:55:40.771Z,58.40
2018-04-08T20:58:07.241Z,57.70
2018-04-08T21:00:33.421Z,58.50
2018-04-08T21:03:00.287Z,59.00
2018-04-08T21:05:26.422Z,59.00
2018-04-08T21:07:52.599Z,58.80
2018-04-08T21:10:18.718Z,59.50
2018-04-08T21:12:44.908Z,59.30
2018-04-08T21:15:12.634Z,59.30
2018-04-08T21:17:39.027Z,59.60
2018-04-08T21:20:06.202Z,60.10
2018-04-08T21:22:32.561Z,59.90
2018-04-08T21:25:01.229Z,60.20
2018-04-08T21:27:27.567Z,60.60
2018-04-08T21:29:53.744Z,60.20
2018-04-08T21:32:20.607Z,61.30
2018-04-08T21:34:46.842Z,61.40
2018-04-08T21:37:13.067Z,62.70
2018-04-08T21:39:39.223Z,63.20
2018-04-08T21:42:05.355Z,63.60
2018-04-08T21:44:32.203Z,62.50
2018-04-08T21:46:59.162Z,62.70
2018-04-08T21:49:25.292Z,62.70
2018-04-08T21:51:51.479Z,62.90
2018-04-08T21:54:17.614Z,63.60
2018-04-08T21:56:43.831Z,64.10
2018-04-08T21:59:10.694Z,64.70
2018-04-08T22:01:36.855Z,64.60
2018-04-08T22:04:02.976Z,64.70
2018-04-08T22:06:29.117Z,64.60
2018-04-08T22:08:55.323Z,64.60
2018-04-08T22:11:21.440Z,64.80
2018-04-08T22:13:47.538Z,65.20
2018-04-08T22:16:13.646Z,65.00
2018-04-08T22:18:39.798Z,65.00
2018-04-08T22:21:05.871Z,65.00
2018-04-08T22:23:31.977Z,65.70
2018-04-08T22:25:58.871Z,65.70
2018-04-08T22:28:25.103Z,65.70
2018-04-08T22:30:51.192Z,66.40
2018-04-08T22:33:17.290Z,66.30
2018-04-08T22:35:43.432Z,66.40
2018-04-08T22:38:09.617Z,66.80
2018-04-08T22:40:36.478Z,66.50
2018-04-08T22:43:03.443Z,66.30
2018-04-08T22:45:30.286Z,66.80
2018-04-08T22:47:56.416Z,66.80
2018-04-08T22:50:22.542Z,67.00
2018-04-08T22:52:48.698Z,67.10
2018-04-08T22:55:14.808Z,67.10
2018-04-08T22:57:40.933Z,66.60
2018-04-08T23:00:07.800Z,67.20
2018-04-08T23:02:34.157Z,67.20
2018-04-08T23:05:00.294Z,67.70
2018-04-08T23:07:26.389Z,68.10
2018-04-08T23:09:52.535Z,68.30
2018-04-08T23:12:18.647Z,68.00
2018-04-08T23:14:45.525Z,69.00
2018-04-08T23:17:11.683Z,68.90
2018-04-08T23:19:37.780Z,69.30
2018-04-08T23:22:03.932Z,68.50
2018-04-08T23:24:30.053Z,69.10
2018-04-08T23:26:56.897Z,69.40
2018-04-08T23:29:23.095Z,70.10
2018-04-08T23:31:49.250Z,68.80
2018-04-08T23:34:15.386Z,69.30
2018-04-08T23:36:41.520Z,69.40
2018-04-08T23:39:07.698Z,69.40
2018-04-08T23:41:33.842Z,68.90
2018-04-08T23:44:00.752Z,68.80
2018-04-08T23:46:26.867Z,68.80
2018-04-08T23:48:53.031Z,69.00
2018-04-08T23:51:19.141Z,69.20
2018-04-08T23:53:45.280Z,69.50
2018-04-08T23:56:11.430Z,69.70
2018-04-08T23:58:37.523Z,69.70
